sensor_id;sensor_type;location;lat;lon;timestamp;pressure;altitude;pressure_sealevel;temperature;humidity
40730;BME280;26418;50.070;8.436;2022-07-23T00:01:15;99907.84;;;22.65;56.79
40730;BME280;26418;50.070;8.436;2022-07-23T00:03:40;99894.84;;;22.61;57.06
40730;BME280;26418;50.070;8.436;2022-07-23T00:06:06;99893.25;;;22.57;56.84
40730;BME280;26418;50.070;8.436;2022-07-23T00:08:32;99889.25;;;22.51;57.50
40730;BME280;26418;50.070;8.436;2022-07-23T00:10:57;99893.56;;;22.48;57.52
40730;BME280;26418;50.070;8.436;2022-07-23T00:13:22;99901.03;;;22.44;57.63
40730;BME280;26418;50.070;8.436;2022-07-23T00:15:48;99898.56;;;22.35;57.77
40730;BME280;26418;50.070;8.436;2022-07-23T00:18:13;99900.88;;;22.33;58.26
40730;BME280;26418;50.070;8.436;2022-07-23T00:20:39;99907.59;;;22.32;57.83
40730;BME280;26418;50.070;8.436;2022-07-23T00:23:04;99911.84;;;22.26;58.12
40730;BME280;26418;50.070;8.436;2022-07-23T00:25:30;99917.34;;;22.22;58.38
40730;BME280;26418;50.070;8.436;2022-07-23T00:27:56;99917.31;;;22.19;58.49
40730;BME280;26418;50.070;8.436;2022-07-23T00:30:21;99930.28;;;22.18;58.50
40730;BME280;26418;50.070;8.436;2022-07-23T00:32:58;99931.84;;;22.16;58.52
40730;BME280;26418;50.070;8.436;2022-07-23T00:35:26;99929.84;;;22.12;58.87
40730;BME280;26418;50.070;8.436;2022-07-23T00:37:52;99907.75;;;22.05;58.68
40730;BME280;26418;50.070;8.436;2022-07-23T00:40:18;99892.34;;;22.01;58.97
40730;BME280;26418;50.070;8.436;2022-07-23T00:42:43;99894.69;;;21.98;59.22
40730;BME280;26418;50.070;8.436;2022-07-23T00:45:09;99895.13;;;22.01;59.51
40730;BME280;26418;50.070;8.436;2022-07-23T00:47:35;99902.19;;;21.98;59.20
40730;BME280;26418;50.070;8.436;2022-07-23T00:50:03;99903.66;;;21.92;59.64
40730;BME280;26418;50.070;8.436;2022-07-23T00:52:29;99905.22;;;21.89;59.75
40730;BME280;26418;50.070;8.436;2022-07-23T00:54:55;99901.66;;;21.85;59.79
40730;BME280;26418;50.070;8.436;2022-07-23T00:57:21;99904.72;;;21.80;59.87
40730;BME280;26418;50.070;8.436;2022-07-23T00:59:46;99898.41;;;21.76;60.11
40730;BME280;26418;50.070;8.436;2022-07-23T01:02:12;99899.97;;;21.73;60.08
40730;BME280;26418;50.070;8.436;2022-07-23T01:04:37;99921.19;;;21.73;60.52
40730;BME280;26418;50.070;8.436;2022-07-23T01:07:03;99929.84;;;21.75;60.23
40730;BME280;26418;50.070;8.436;2022-07-23T01:09:28;99945.56;;;21.74;60.11
40730;BME280;26418;50.070;8.436;2022-07-23T01:11:55;99943.63;;;21.75;60.54
40730;BME280;26418;50.070;8.436;2022-07-23T01:14:21;99943.63;;;21.75;60.23
40730;BME280;26418;50.070;8.436;2022-07-23T01:16:47;99957.81;;;21.77;60.51
40730;BME280;26418;50.070;8.436;2022-07-23T01:19:14;99962.97;;;21.82;60.67
40730;BME280;26418;50.070;8.436;2022-07-23T01:21:46;99950.13;;;21.93;60.51
40730;BME280;26418;50.070;8.436;2022-07-23T01:24:12;99935.19;;;21.94;60.18
40730;BME280;26418;50.070;8.436;2022-07-23T01:26:41;99926.94;;;21.94;60.71
40730;BME280;26418;50.070;8.436;2022-07-23T01:29:07;99911.22;;;21.98;61.05
40730;BME280;26418;50.070;8.436;2022-07-23T01:31:32;99904.13;;;21.97;61.65
40730;BME280;26418;50.070;8.436;2022-07-23T01:33:58;99899.78;;;21.96;62.89
40730;BME280;26418;50.070;8.436;2022-07-23T01:36:23;99900.53;;;21.90;63.50
40730;BME280;26418;50.070;8.436;2022-07-23T01:38:49;99876.81;;;21.78;63.74
40730;BME280;26418;50.070;8.436;2022-07-23T01:41:15;99868.44;;;21.71;64.14
40730;BME280;26418;50.070;8.436;2022-07-23T01:43:40;99906.91;;;21.63;64.45
40730;BME280;26418;50.070;8.436;2022-07-23T01:46:06;99927.03;;;21.67;64.34
40730;BME280;26418;50.070;8.436;2022-07-23T01:48:31;99901.00;;;21.61;64.32
40730;BME280;26418;50.070;8.436;2022-07-23T01:50:57;99893.81;;;21.53;65.04
40730;BME280;26418;50.070;8.436;2022-07-23T01:53:22;99899.63;;;21.48;65.35
40730;BME280;26418;50.070;8.436;2022-07-23T01:55:48;99887.81;;;21.44;66.01
40730;BME280;26418;50.070;8.436;2022-07-23T01:58:13;99898.78;;;21.40;65.67
40730;BME280;26418;50.070;8.436;2022-07-23T02:00:39;99895.19;;;21.36;65.86
40730;BME280;26418;50.070;8.436;2022-07-23T02:03:04;99899.09;;;21.35;65.81
40730;BME280;26418;50.070;8.436;2022-07-23T02:05:30;99920.31;;;21.34;65.99
40730;BME280;26418;50.070;8.436;2022-07-23T02:07:57;99925.38;;;21.32;66.15
40730;BME280;26418;50.070;8.436;2022-07-23T02:10:24;99931.22;;;21.27;66.11
40730;BME280;26418;50.070;8.436;2022-07-23T02:12:49;99926.81;;;21.19;65.54
40730;BME280;26418;50.070;8.436;2022-07-23T02:15:15;99929.84;;;21.14;65.80
40730;BME280;26418;50.070;8.436;2022-07-23T02:17:41;99945.53;;;21.10;65.79
40730;BME280;26418;50.070;8.436;2022-07-23T02:20:07;99940.34;;;21.04;66.04
40730;BME280;26418;50.070;8.436;2022-07-23T02:22:33;99941.09;;;21.01;66.47
40730;BME280;26418;50.070;8.436;2022-07-23T02:24:59;99946.53;;;20.98;66.73
40730;BME280;26418;50.070;8.436;2022-07-23T02:27:25;99945.31;;;20.95;66.55
40730;BME280;26418;50.070;8.436;2022-07-23T02:29:50;99939.81;;;20.95;66.85
40730;BME280;26418;50.070;8.436;2022-07-23T02:32:16;99935.50;;;20.94;66.35
40730;BME280;26418;50.070;8.436;2022-07-23T02:34:41;99942.88;;;20.90;66.50
40730;BME280;26418;50.070;8.436;2022-07-23T02:37:07;99942.84;;;20.86;66.45
40730;BME280;26418;50.070;8.436;2022-07-23T02:39:34;99942.50;;;20.92;66.35
40730;BME280;26418;50.070;8.436;2022-07-23T02:42:00;99944.84;;;20.89;66.36
40730;BME280;26418;50.070;8.436;2022-07-23T02:44:25;99931.78;;;20.83;66.50
40730;BME280;26418;50.070;8.436;2022-07-23T02:46:50;99927.84;;;20.80;66.95
40730;BME280;26418;50.070;8.436;2022-07-23T02:49:16;99938.81;;;20.80;67.09
40730;BME280;26418;50.070;8.436;2022-07-23T02:51:42;99936.44;;;20.79;66.91
40730;BME280;26418;50.070;8.436;2022-07-23T02:54:08;99939.50;;;20.73;67.04
40730;BME280;26418;50.070;8.436;2022-07-23T02:56:33;99933.53;;;20.71;67.17
40730;BME280;26418;50.070;8.436;2022-07-23T02:58:59;99927.72;;;20.73;67.04
40730;BME280;26418;50.070;8.436;2022-07-23T03:01:24;99918.28;;;20.74;67.22
40730;BME280;26418;50.070;8.436;2022-07-23T03:03:49;99921.75;;;20.71;67.14
40730;BME280;26418;50.070;8.436;2022-07-23T03:06:15;99923.59;;;20.63;67.43
40730;BME280;26418;50.070;8.436;2022-07-23T03:08:40;99923.16;;;20.61;67.64
40730;BME280;26418;50.070;8.436;2022-07-23T03:11:06;99925.47;;;20.55;67.82
40730;BME280;26418;50.070;8.436;2022-07-23T03:13:36;99927.72;;;20.50;68.32
40730;BME280;26418;50.070;8.436;2022-07-23T03:16:02;99919.75;;;20.45;68.56
40730;BME280;26418;50.070;8.436;2022-07-23T03:18:28;99938.88;;;20.37;68.99
40730;BME280;26418;50.070;8.436;2022-07-23T03:20:54;99931.28;;;20.27;69.48
40730;BME280;26418;50.070;8.436;2022-07-23T03:25:54;99942.25;;;20.27;68.98
40730;BME280;26418;50.070;8.436;2022-07-23T03:28:20;99931.56;;;20.22;69.39
40730;BME280;26418;50.070;8.436;2022-07-23T03:30:46;99942.09;;;20.20;69.51
40730;BME280;26418;50.070;8.436;2022-07-23T03:33:13;99944.44;;;20.18;69.28
40730;BME280;26418;50.070;8.436;2022-07-23T03:35:39;99941.31;;;20.19;69.89
40730;BME280;26418;50.070;8.436;2022-07-23T03:38:04;99946.09;;;20.22;69.52
40730;BME280;26418;50.070;8.436;2022-07-23T03:40:30;99940.66;;;20.26;69.35
40730;BME280;26418;50.070;8.436;2022-07-23T03:42:55;99951.28;;;20.27;69.06
40730;BME280;26418;50.070;8.436;2022-07-23T03:45:21;99959.91;;;20.26;69.20
40730;BME280;26418;50.070;8.436;2022-07-23T03:47:46;99962.56;;;20.22;69.17
40730;BME280;26418;50.070;8.436;2022-07-23T03:50:12;99971.66;;;20.26;69.20
40730;BME280;26418;50.070;8.436;2022-07-23T03:52:37;99968.53;;;20.28;69.04
40730;BME280;26418;50.070;8.436;2022-07-23T03:55:03;99966.97;;;20.27;68.74
40730;BME280;26418;50.070;8.436;2022-07-23T03:57:29;99968.31;;;20.37;68.23
40730;BME280;26418;50.070;8.436;2022-07-23T03:59:55;99971.50;;;20.39;68.36
40730;BME280;26418;50.070;8.436;2022-07-23T04:02:20;99972.72;;;20.41;68.03
40730;BME280;26418;50.070;8.436;2022-07-23T04:04:45;99968.75;;;20.39;68.21
40730;BME280;26418;50.070;8.436;2022-07-23T04:07:12;99971.19;;;20.44;68.15
40730;BME280;26418;50.070;8.436;2022-07-23T04:09:37;99971.25;;;20.48;67.90
40730;BME280;26418;50.070;8.436;2022-07-23T04:12:06;99970.53;;;20.51;67.66
40730;BME280;26418;50.070;8.436;2022-07-23T04:29:56;99997.56;;;20.49;67.62
40730;BME280;26418;50.070;8.436;2022-07-23T04:32:22;100011.28;;;20.49;67.60
40730;BME280;26418;50.070;8.436;2022-07-23T04:34:47;100020.75;;;20.51;67.60
40730;BME280;26418;50.070;8.436;2022-07-23T04:37:13;100020.38;;;20.53;67.77
40730;BME280;26418;50.070;8.436;2022-07-23T04:39:38;100027.97;;;20.60;67.02
40730;BME280;26418;50.070;8.436;2022-07-23T04:42:04;100025.28;;;20.63;66.88
40730;BME280;26418;50.070;8.436;2022-07-23T04:44:29;100027.78;;;20.72;66.90
40730;BME280;26418;50.070;8.436;2022-07-23T04:46:55;100032.69;;;20.82;66.49
40730;BME280;26418;50.070;8.436;2022-07-23T04:49:20;100041.47;;;20.92;65.51
40730;BME280;26418;50.070;8.436;2022-07-23T04:51:46;100029.38;;;20.96;65.79
40730;BME280;26418;50.070;8.436;2022-07-23T04:54:11;100033.44;;;21.02;65.29
40730;BME280;26418;50.070;8.436;2022-07-23T04:56:36;100035.47;;;21.09;65.12
40730;BME280;26418;50.070;8.436;2022-07-23T04:59:02;100047.34;;;21.13;64.95
40730;BME280;26418;50.070;8.436;2022-07-23T05:01:27;100044.22;;;21.15;65.16
40730;BME280;26418;50.070;8.436;2022-07-23T05:03:53;100038.38;;;21.20;64.53
40730;BME280;26418;50.070;8.436;2022-07-23T05:06:18;100047.50;;;21.24;64.68
40730;BME280;26418;50.070;8.436;2022-07-23T05:08:44;100031.81;;;21.28;64.50
40730;BME280;26418;50.070;8.436;2022-07-23T05:11:09;100032.25;;;21.30;64.25
40730;BME280;26418;50.070;8.436;2022-07-23T05:13:35;100035.81;;;21.31;64.13
40730;BME280;26418;50.070;8.436;2022-07-23T05:16:00;100036.59;;;21.31;64.16
40730;BME280;26418;50.070;8.436;2022-07-23T05:18:26;100039.72;;;21.30;64.25
40730;BME280;26418;50.070;8.436;2022-07-23T05:20:51;100046.06;;;21.34;64.22
40730;BME280;26418;50.070;8.436;2022-07-23T05:23:17;100045.81;;;21.43;64.24
40730;BME280;26418;50.070;8.436;2022-07-23T05:25:42;100047.91;;;21.53;63.48
40730;BME280;26418;50.070;8.436;2022-07-23T05:28:08;100047.97;;;21.57;63.12
40730;BME280;26418;50.070;8.436;2022-07-23T05:30:33;100058.63;;;21.58;63.20
40730;BME280;26418;50.070;8.436;2022-07-23T05:32:59;100061.81;;;21.60;63.27
40730;BME280;26418;50.070;8.436;2022-07-23T05:35:24;100067.72;;;21.62;62.95
40730;BME280;26418;50.070;8.436;2022-07-23T05:37:50;100066.59;;;21.67;62.90
40730;BME280;26418;50.070;8.436;2022-07-23T05:40:17;100065.84;;;21.70;62.94
40730;BME280;26418;50.070;8.436;2022-07-23T05:42:43;100061.19;;;21.74;63.30
40730;BME280;26418;50.070;8.436;2022-07-23T05:45:09;100063.59;;;21.76;63.17
40730;BME280;26418;50.070;8.436;2022-07-23T05:47:44;100061.56;;;21.73;63.17
40730;BME280;26418;50.070;8.436;2022-07-23T05:50:11;100069.00;;;21.69;63.05
40730;BME280;26418;50.070;8.436;2022-07-23T05:52:39;100063.88;;;21.71;63.51
40730;BME280;26418;50.070;8.436;2022-07-23T05:55:06;100067.53;;;21.78;63.46
40730;BME280;26418;50.070;8.436;2022-07-23T05:57:31;100061.75;;;21.87;63.46
40730;BME280;26418;50.070;8.436;2022-07-23T05:59:57;100060.63;;;21.92;62.15
40730;BME280;26418;50.070;8.436;2022-07-23T06:02:23;100069.72;;;21.96;62.82
40730;BME280;26418;50.070;8.436;2022-07-23T06:04:48;100077.59;;;21.97;62.14
40730;BME280;26418;50.070;8.436;2022-07-23T06:07:14;100084.44;;;22.07;62.44
40730;BME280;26418;50.070;8.436;2022-07-23T06:09:39;100088.09;;;22.19;61.98
40730;BME280;26418;50.070;8.436;2022-07-23T06:12:05;100091.81;;;22.34;61.51
40730;BME280;26418;50.070;8.436;2022-07-23T06:14:30;100083.31;;;22.46;61.01
40730;BME280;26418;50.070;8.436;2022-07-23T06:16:56;100092.91;;;22.59;59.89
40730;BME280;26418;50.070;8.436;2022-07-23T06:19:22;100097.75;;;22.70;59.81
40730;BME280;26418;50.070;8.436;2022-07-23T06:21:47;100096.66;;;22.82;58.97
40730;BME280;26418;50.070;8.436;2022-07-23T06:24:12;100092.84;;;22.93;58.39
40730;BME280;26418;50.070;8.436;2022-07-23T06:26:38;100088.91;;;22.95;58.13
40730;BME280;26418;50.070;8.436;2022-07-23T06:29:03;100089.00;;;23.05;57.91
40730;BME280;26418;50.070;8.436;2022-07-23T06:31:29;100077.63;;;23.14;57.37
40730;BME280;26418;50.070;8.436;2022-07-23T06:33:54;100085.63;;;23.23;56.41
40730;BME280;26418;50.070;8.436;2022-07-23T06:36:20;100076.56;;;23.26;56.29
40730;BME280;26418;50.070;8.436;2022-07-23T06:38:45;100080.53;;;23.29;56.66
40730;BME280;26418;50.070;8.436;2022-07-23T06:41:11;100079.00;;;23.35;56.67
40730;BME280;26418;50.070;8.436;2022-07-23T06:43:36;100081.44;;;23.47;55.88
40730;BME280;26418;50.070;8.436;2022-07-23T06:46:02;100083.06;;;23.55;55.71
40730;BME280;26418;50.070;8.436;2022-07-23T06:48:28;100082.75;;;23.68;55.46
40730;BME280;26418;50.070;8.436;2022-07-23T06:50:54;100081.63;;;23.80;55.19
40730;BME280;26418;50.070;8.436;2022-07-23T06:53:20;100079.69;;;23.88;54.85
40730;BME280;26418;50.070;8.436;2022-07-23T06:55:46;100078.94;;;23.94;54.72
40730;BME280;26418;50.070;8.436;2022-07-23T06:58:11;100078.97;;;24.01;54.37
40730;BME280;26418;50.070;8.436;2022-07-23T07:00:39;100088.09;;;24.13;53.85
40730;BME280;26418;50.070;8.436;2022-07-23T07:03:05;100079.81;;;24.16;53.92
40730;BME280;26418;50.070;8.436;2022-07-23T07:05:30;100084.19;;;24.17;54.06
40730;BME280;26418;50.070;8.436;2022-07-23T07:07:56;100098.81;;;24.22;53.90
40730;BME280;26418;50.070;8.436;2022-07-23T07:10:22;100100.41;;;24.30;53.07
40730;BME280;26418;50.070;8.436;2022-07-23T07:12:47;100112.25;;;24.27;53.02
40730;BME280;26418;50.070;8.436;2022-07-23T07:15:13;100112.63;;;24.22;53.38
40730;BME280;26418;50.070;8.436;2022-07-23T07:17:38;100107.03;;;24.14;53.84
40730;BME280;26418;50.070;8.436;2022-07-23T07:20:05;100116.91;;;24.15;53.83
40730;BME280;26418;50.070;8.436;2022-07-23T07:22:31;100109.88;;;24.29;53.65
40730;BME280;26418;50.070;8.436;2022-07-23T07:24:56;100115.84;;;24.42;52.76
40730;BME280;26418;50.070;8.436;2022-07-23T07:27:22;100122.94;;;24.43;52.70
40730;BME280;26418;50.070;8.436;2022-07-23T07:29:47;100122.91;;;24.32;53.16
40730;BME280;26418;50.070;8.436;2022-07-23T07:32:13;100123.31;;;24.30;52.74
40730;BME280;26418;50.070;8.436;2022-07-23T07:34:38;100134.69;;;24.14;53.05
40730;BME280;26418;50.070;8.436;2022-07-23T07:37:04;100129.84;;;23.97;53.73
40730;BME280;26418;50.070;8.436;2022-07-23T07:39:29;100137.78;;;23.98;53.97
40730;BME280;26418;50.070;8.436;2022-07-23T07:41:55;100144.13;;;24.06;53.31
40730;BME280;26418;50.070;8.436;2022-07-23T07:44:20;100141.00;;;24.11;53.97
40730;BME280;26418;50.070;8.436;2022-07-23T07:46:46;100143.41;;;24.24;54.13
40730;BME280;26418;50.070;8.436;2022-07-23T07:49:11;100148.22;;;24.41;53.56
40730;BME280;26418;50.070;8.436;2022-07-23T07:51:37;100147.47;;;24.59;53.56
40730;BME280;26418;50.070;8.436;2022-07-23T07:54:02;100154.66;;;24.82;52.95
40730;BME280;26418;50.070;8.436;2022-07-23T07:56:28;100151.94;;;24.96;52.07
40730;BME280;26418;50.070;8.436;2022-07-23T07:58:53;100151.91;;;24.82;52.02
40730;BME280;26418;50.070;8.436;2022-07-23T08:01:19;100159.78;;;24.72;52.24
40730;BME280;26418;50.070;8.436;2022-07-23T08:03:45;100157.41;;;24.67;52.23
40730;BME280;26418;50.070;8.436;2022-07-23T08:06:11;100166.06;;;24.55;52.86
40730;BME280;26418;50.070;8.436;2022-07-23T08:08:36;100154.59;;;24.56;53.48
40730;BME280;26418;50.070;8.436;2022-07-23T08:11:02;100166.91;;;24.77;52.95
40730;BME280;26418;50.070;8.436;2022-07-23T08:13:27;100154.72;;;24.89;52.33
40730;BME280;26418;50.070;8.436;2022-07-23T08:15:53;100159.84;;;25.08;51.94
40730;BME280;26418;50.070;8.436;2022-07-23T08:18:19;100154.72;;;25.25;51.96
40730;BME280;26418;50.070;8.436;2022-07-23T08:20:44;100153.56;;;25.55;51.52
40730;BME280;26418;50.070;8.436;2022-07-23T08:23:10;100152.72;;;25.83;50.58
40730;BME280;26418;50.070;8.436;2022-07-23T08:25:45;100156.59;;;26.11;49.83
40730;BME280;26418;50.070;8.436;2022-07-23T08:28:13;100158.47;;;26.47;48.69
40730;BME280;26418;50.070;8.436;2022-07-23T08:30:40;100152.34;;;26.74;48.42
40730;BME280;26418;50.070;8.436;2022-07-23T08:33:14;100155.38;;;27.01;47.87
40730;BME280;26418;50.070;8.436;2022-07-23T08:35:42;100159.88;;;27.33;46.85
40730;BME280;26418;50.070;8.436;2022-07-23T08:38:17;100146.97;;;27.61;46.02
40730;BME280;26418;50.070;8.436;2022-07-23T08:40:52;100151.09;;;27.84;45.11
40730;BME280;26418;50.070;8.436;2022-07-23T08:43:20;100156.91;;;27.97;44.49
40730;BME280;26418;50.070;8.436;2022-07-23T08:45:47;100154.44;;;28.06;44.16
40730;BME280;26418;50.070;8.436;2022-07-23T08:48:16;100162.75;;;28.06;43.22
40730;BME280;26418;50.070;8.436;2022-07-23T08:50:48;100158.44;;;28.01;43.22
40730;BME280;26418;50.070;8.436;2022-07-23T08:53:14;100159.16;;;28.09;42.93
40730;BME280;26418;50.070;8.436;2022-07-23T08:55:50;100163.56;;;28.06;41.96
40730;BME280;26418;50.070;8.436;2022-07-23T08:58:17;100158.41;;;28.05;42.85
40730;BME280;26418;50.070;8.436;2022-07-23T09:00:44;100156.97;;;28.28;42.81
40730;BME280;26418;50.070;8.436;2022-07-23T09:05:43;100154.72;;;28.77;41.78
40730;BME280;26418;50.070;8.436;2022-07-23T09:08:10;100155.88;;;29.07;40.85
40730;BME280;26418;50.070;8.436;2022-07-23T09:10:43;100151.72;;;29.19;40.69
40730;BME280;26418;50.070;8.436;2022-07-23T09:13:30;100140.81;;;29.52;40.60
40730;BME280;26418;50.070;8.436;2022-07-23T09:16:02;100150.94;;;29.66;39.52
40730;BME280;26418;50.070;8.436;2022-07-23T09:18:34;100144.56;;;29.86;39.45
40730;BME280;26418;50.070;8.436;2022-07-23T09:26:17;100134.97;;;30.47;38.15
40730;BME280;26418;50.070;8.436;2022-07-23T09:28:51;100144.47;;;30.13;36.92
40730;BME280;26418;50.070;8.436;2022-07-23T09:31:18;100145.25;;;29.93;37.50
40730;BME280;26418;50.070;8.436;2022-07-23T09:33:44;100145.03;;;30.04;37.95
40730;BME280;26418;50.070;8.436;2022-07-23T09:36:09;100141.03;;;30.05;37.96
40730;BME280;26418;50.070;8.436;2022-07-23T09:41:38;100150.44;;;30.32;37.35
40730;BME280;26418;50.070;8.436;2022-07-23T09:44:08;100149.31;;;30.29;37.14
40730;BME280;26418;50.070;8.436;2022-07-23T09:46:34;100152.81;;;30.53;37.54
40730;BME280;26418;50.070;8.436;2022-07-23T09:49:10;100143.66;;;30.86;35.97
40730;BME280;26418;50.070;8.436;2022-07-23T09:51:44;100154.69;;;30.93;34.12
40730;BME280;26418;50.070;8.436;2022-07-23T09:54:38;100156.00;;;30.32;35.31
40730;BME280;26418;50.070;8.436;2022-07-23T09:57:07;100154.50;;;29.87;35.75
40730;BME280;26418;50.070;8.436;2022-07-23T09:59:36;100150.03;;;29.93;35.42
40730;BME280;26418;50.070;8.436;2022-07-23T10:02:04;100159.78;;;30.05;34.75
40730;BME280;26418;50.070;8.436;2022-07-23T10:04:31;100156.03;;;30.11;34.64
40730;BME280;26418;50.070;8.436;2022-07-23T10:07:01;100156.06;;;30.48;32.92
40730;BME280;26418;50.070;8.436;2022-07-23T10:09:34;100158.63;;;30.96;34.20
40730;BME280;26418;50.070;8.436;2022-07-23T10:12:02;100152.75;;;31.07;35.29
40730;BME280;26418;50.070;8.436;2022-07-23T10:14:47;100149.25;;;30.69;35.55
40730;BME280;26418;50.070;8.436;2022-07-23T10:17:13;100158.94;;;30.45;35.53
40730;BME280;26418;50.070;8.436;2022-07-23T10:19:39;100153.09;;;29.99;35.38
40730;BME280;26418;50.070;8.436;2022-07-23T10:22:10;100151.50;;;29.77;34.29
40730;BME280;26418;50.070;8.436;2022-07-23T10:35:36;100146.81;;;31.38;29.88
40730;BME280;26418;50.070;8.436;2022-07-23T10:38:22;100151.63;;;31.37;30.71
40730;BME280;26418;50.070;8.436;2022-07-23T10:40:56;100147.47;;;31.29;30.33
40730;BME280;26418;50.070;8.436;2022-07-23T10:43:23;100156.09;;;31.51;30.71
40730;BME280;26418;50.070;8.436;2022-07-23T10:45:49;100150.03;;;31.69;29.72
40730;BME280;26418;50.070;8.436;2022-07-23T10:48:24;100155.66;;;31.82;30.03
40730;BME280;26418;50.070;8.436;2022-07-23T10:51:15;100154.78;;;32.14;29.36
40730;BME280;26418;50.070;8.436;2022-07-23T10:53:55;100151.03;;;32.47;28.22
40730;BME280;26418;50.070;8.436;2022-07-23T10:59:24;100143.66;;;32.40;28.54
40730;BME280;26418;50.070;8.436;2022-07-23T11:01:50;100141.41;;;32.74;27.58
40730;BME280;26418;50.070;8.436;2022-07-23T11:04:16;100135.44;;;33.11;27.58
40730;BME280;26418;50.070;8.436;2022-07-23T11:17:23;100132.84;;;34.09;25.54
40730;BME280;26418;50.070;8.436;2022-07-23T11:25:13;100137.63;;;32.94;26.70
40730;BME280;26418;50.070;8.436;2022-07-23T11:27:43;100140.63;;;32.73;27.43
40730;BME280;26418;50.070;8.436;2022-07-23T11:35:37;100135.94;;;32.83;27.36
40730;BME280;26418;50.070;8.436;2022-07-23T11:38:23;100129.19;;;32.68;27.69
40730;BME280;26418;50.070;8.436;2022-07-23T11:43:18;100122.44;;;33.04;26.62
40730;BME280;26418;50.070;8.436;2022-07-23T11:45:49;100123.25;;;32.91;26.83
40730;BME280;26418;50.070;8.436;2022-07-23T11:50:43;100122.38;;;33.30;27.24
40730;BME280;26418;50.070;8.436;2022-07-23T11:53:08;100131.94;;;33.32;26.62
40730;BME280;26418;50.070;8.436;2022-07-23T11:55:34;100118.88;;;33.51;26.11
40730;BME280;26418;50.070;8.436;2022-07-23T11:58:00;100118.00;;;33.64;25.91
40730;BME280;26418;50.070;8.436;2022-07-23T12:00:28;100110.47;;;33.74;26.19
40730;BME280;26418;50.070;8.436;2022-07-23T12:03:04;100113.16;;;33.99;26.10
40730;BME280;26418;50.070;8.436;2022-07-23T12:05:36;100118.94;;;34.05;26.31
40730;BME280;26418;50.070;8.436;2022-07-23T12:08:08;100114.31;;;34.11;25.86
40730;BME280;26418;50.070;8.436;2022-07-23T12:10:34;100107.47;;;34.12;26.03
40730;BME280;26418;50.070;8.436;2022-07-23T12:13:03;100106.25;;;33.91;25.95
40730;BME280;26418;50.070;8.436;2022-07-23T12:15:35;100113.06;;;34.12;26.05
40730;BME280;26418;50.070;8.436;2022-07-23T12:18:21;100109.16;;;34.41;25.93
40730;BME280;26418;50.070;8.436;2022-07-23T12:20:50;100100.34;;;34.61;26.01
40730;BME280;26418;50.070;8.436;2022-07-23T12:23:17;100103.81;;;34.66;25.54
40730;BME280;26418;50.070;8.436;2022-07-23T12:25:44;100104.97;;;34.46;25.74
40730;BME280;26418;50.070;8.436;2022-07-23T12:28:43;100108.81;;;34.80;26.16
40730;BME280;26418;50.070;8.436;2022-07-23T12:31:25;100102.34;;;35.20;25.16
40730;BME280;26418;50.070;8.436;2022-07-23T12:33:51;100102.06;;;35.46;24.92
40730;BME280;26418;50.070;8.436;2022-07-23T12:36:17;100103.00;;;35.62;24.73
40730;BME280;26418;50.070;8.436;2022-07-23T12:38:47;100100.34;;;35.21;24.93
40730;BME280;26418;50.070;8.436;2022-07-23T12:41:14;100113.16;;;34.62;25.27
40730;BME280;26418;50.070;8.436;2022-07-23T12:43:42;100105.34;;;33.81;26.22
40730;BME280;26418;50.070;8.436;2022-07-23T12:46:18;100109.28;;;33.39;27.73
40730;BME280;26418;50.070;8.436;2022-07-23T12:51:19;100121.22;;;32.53;28.80
40730;BME280;26418;50.070;8.436;2022-07-23T12:53:52;100109.88;;;32.05;29.36
40730;BME280;26418;50.070;8.436;2022-07-23T12:56:32;100114.94;;;31.81;29.78
40730;BME280;26418;50.070;8.436;2022-07-23T13:02:14;100111.88;;;32.05;28.35
40730;BME280;26418;50.070;8.436;2022-07-23T13:04:22;100110.47;;;32.26;28.04
40730;BME280;26418;50.070;8.436;2022-07-23T13:06:52;100110.94;;;32.37;28.74
40730;BME280;26418;50.070;8.436;2022-07-23T13:09:38;100099.03;;;32.72;28.72
40730;BME280;26418;50.070;8.436;2022-07-23T13:12:03;100107.78;;;33.00;28.72
40730;BME280;26418;50.070;8.436;2022-07-23T13:14:29;100117.66;;;32.91;28.05
40730;BME280;26418;50.070;8.436;2022-07-23T13:16:55;100116.53;;;32.63;28.81
40730;BME280;26418;50.070;8.436;2022-07-23T13:19:21;100125.28;;;32.39;28.73
40730;BME280;26418;50.070;8.436;2022-07-23T13:21:49;100117.69;;;32.10;28.90
40730;BME280;26418;50.070;8.436;2022-07-23T13:24:15;100121.09;;;32.18;29.65
40730;BME280;26418;50.070;8.436;2022-07-23T13:26:41;100124.75;;;32.15;28.91
40730;BME280;26418;50.070;8.436;2022-07-23T13:29:07;100129.63;;;31.85;28.94
40730;BME280;26418;50.070;8.436;2022-07-23T13:31:37;100125.31;;;31.67;29.71
40730;BME280;26418;50.070;8.436;2022-07-23T13:34:03;100122.97;;;31.49;30.35
40730;BME280;26418;50.070;8.436;2022-07-23T13:36:29;100121.16;;;31.43;30.00
40730;BME280;26418;50.070;8.436;2022-07-23T13:38:54;100120.66;;;31.15;30.61
40730;BME280;26418;50.070;8.436;2022-07-23T13:41:20;100122.50;;;31.22;30.27
40730;BME280;26418;50.070;8.436;2022-07-23T13:43:45;100124.81;;;31.40;29.90
40730;BME280;26418;50.070;8.436;2022-07-23T13:46:11;100111.25;;;31.55;29.23
40730;BME280;26418;50.070;8.436;2022-07-23T13:48:37;100120.22;;;31.62;29.73
40730;BME280;26418;50.070;8.436;2022-07-23T13:51:03;100109.44;;;31.48;29.88
40730;BME280;26418;50.070;8.436;2022-07-23T13:53:28;100114.28;;;31.31;30.34
40730;BME280;26418;50.070;8.436;2022-07-23T13:55:54;100105.22;;;31.10;30.25
40730;BME280;26418;50.070;8.436;2022-07-23T13:58:20;100120.28;;;30.96;30.79
40730;BME280;26418;50.070;8.436;2022-07-23T14:00:48;100109.03;;;30.83;30.59
40730;BME280;26418;50.070;8.436;2022-07-23T14:03:15;100110.44;;;30.92;31.29
40730;BME280;26418;50.070;8.436;2022-07-23T14:05:40;100108.25;;;30.99;30.13
40730;BME280;26418;50.070;8.436;2022-07-23T14:08:07;100108.19;;;31.19;30.04